Time;durP1;ratioP1;P1;durP2;ratioP2;P2;SDS_P1;SDS_P2;PMS_P1;PMS_P2;Temp;Humidity;BMP_temperature;BMP_pressure;BME280_temperature;BME280_humidity;BME280_pressure;Samples;Min_cycle;Max_cycle;Signal;HPM_P1;HPM_P2
2021/09/25 00:00:07;;;;;;;14.20;5.20;;;;;;;10.95;80.08;100044.39;93599;1196;99215;-59
2021/09/25 00:02:31;;;;;;;11.00;4.20;;;;;;;11.00;80.21;100041.46;93688;1196;90594;-66
2021/09/25 00:04:38;;;;;;;15.10;4.60;;;;;;;11.07;80.24;100042.94;93709;1196;93370;-59
2021/09/25 00:06:42;;;;;;;18.20;4.30;;;;;;;11.10;80.27;100043.73;93742;1196;81439;-59
2021/09/25 00:08:47;;;;;;;14.40;4.40;;;;;;;11.15;80.27;100040.41;93699;1196;80713;-60
2021/09/25 00:10:51;;;;;;;17.30;5.10;;;;;;;11.20;80.34;100039.92;93723;1196;98673;-58
2021/09/25 00:12:56;;;;;;;15.50;4.50;;;;;;;11.25;80.36;100029.66;93732;1196;86753;-60
2021/09/25 00:15:00;;;;;;;13.70;4.20;;;;;;;11.32;80.39;100027.02;93723;1196;93235;-66
2021/09/25 00:17:06;;;;;;;14.70;4.30;;;;;;;11.37;80.50;100026.09;93729;1196;78116;-66
2021/09/25 00:19:10;;;;;;;17.00;4.90;;;;;;;11.40;80.47;100029.55;93794;1196;82725;-59
2021/09/25 00:21:14;;;;;;;12.90;4.30;;;;;;;11.45;80.47;100028.61;93711;1196;99007;-59
2021/09/25 00:23:21;;;;;;;10.60;4.40;;;;;;;11.50;80.50;100033.86;93707;1196;87562;-61
2021/09/25 00:25:25;;;;;;;12.20;3.60;;;;;;;11.57;80.55;100033.54;93710;1196;93654;-66
2021/09/25 00:27:30;;;;;;;14.30;5.10;;;;;;;11.63;80.53;100036.06;93717;1196;80296;-65
2021/09/25 00:29:35;;;;;;;17.70;4.70;;;;;;;11.67;80.65;100036.45;93762;1196;81581;-66
2021/09/25 00:31:39;;;;;;;15.40;5.10;;;;;;;11.71;80.61;100040.59;93711;1196;97848;-65
2021/09/25 00:33:43;;;;;;;12.40;4.60;;;;;;;11.73;80.64;100034.77;93716;1196;87455;-65
2021/09/25 00:35:47;;;;;;;13.50;4.80;;;;;;;11.75;80.55;100030.70;93712;1196;93862;-68
2021/09/25 00:37:54;;;;;;;13.70;4.80;;;;;;;11.78;80.67;100027.25;93744;1196;79239;-63
2021/09/25 00:40:01;;;;;;;14.50;5.20;;;;;;;11.81;80.67;100028.01;93735;1196;81535;-64
2021/09/25 00:42:06;;;;;;;12.70;4.30;;;;;;;11.85;80.63;100027.59;93736;1196;98974;-64
2021/09/25 00:44:10;;;;;;;15.10;4.80;;;;;;;11.87;80.61;100025.84;93693;1196;86351;-62
2021/09/25 00:46:15;;;;;;;12.00;4.40;;;;;;;11.89;80.64;100022.94;93680;1196;92981;-61
2021/09/25 00:48:22;;;;;;;11.90;4.40;;;;;;;11.91;80.68;100021.40;93705;1196;81541;-62
2021/09/25 00:50:29;;;;;;;12.60;4.10;;;;;;;11.93;80.68;100022.52;93714;1196;81703;-64
2021/09/25 00:52:36;;;;;;;10.90;4.60;;;;;;;11.98;80.82;100025.14;93748;1196;97090;-65
2021/09/25 00:54:41;;;;;;;14.80;4.40;;;;;;;11.99;80.79;100025.80;93685;1196;88238;-62
2021/09/25 00:56:50;;;;;;;14.00;5.10;;;;;;;12.03;80.70;100023.73;93712;1196;93285;-61
2021/09/25 00:58:55;;;;;;;15.50;4.70;;;;;;;12.02;80.78;100019.29;93712;1196;79621;-62
2021/09/25 01:00:59;;;;;;;13.60;4.40;;;;;;;12.03;80.73;100016.41;93647;1198;81562;-62
2021/09/25 01:03:03;;;;;;;13.70;4.90;;;;;;;12.08;80.79;100017.81;93721;1196;98608;-62
2021/09/25 01:05:10;;;;;;;12.50;5.30;;;;;;;12.12;80.86;100010.45;93793;1196;86681;-63
2021/09/25 01:07:15;;;;;;;14.30;4.30;;;;;;;12.14;80.90;100002.98;93739;1196;95636;-64
2021/09/25 01:09:19;;;;;;;11.10;4.50;;;;;;;12.17;80.91;100005.86;93719;1196;80623;-63
2021/09/25 01:11:24;;;;;;;12.00;4.70;;;;;;;12.19;80.90;100005.45;93721;1196;82287;-62
2021/09/25 01:13:30;;;;;;;13.40;4.20;;;;;;;12.20;80.98;100001.70;93665;1196;98634;-63
2021/09/25 01:15:38;;;;;;;11.90;5.00;;;;;;;12.23;80.87;100001.56;93741;1196;87768;-63
2021/09/25 01:17:43;;;;;;;11.90;4.70;;;;;;;12.25;80.92;99998.77;93736;1196;92861;-65
2021/09/25 01:19:47;;;;;;;13.30;4.70;;;;;;;12.27;81.06;99996.36;93713;1196;79371;-61
2021/09/25 01:21:51;;;;;;;12.70;4.20;;;;;;;12.29;80.99;99998.02;93745;1196;81571;-61
2021/09/25 01:23:58;;;;;;;14.20;4.40;;;;;;;12.30;81.12;99996.39;93727;1196;98208;-63
2021/09/25 01:26:07;;;;;;;10.40;4.30;;;;;;;12.31;81.15;100002.27;93723;1196;86854;-63
2021/09/25 01:28:12;;;;;;;14.00;4.60;;;;;;;12.35;81.20;100002.92;93733;1196;93701;-63
2021/09/25 01:30:18;;;;;;;11.10;4.50;;;;;;;12.39;81.25;100002.83;93725;1196;78010;-61
2021/09/25 01:32:22;;;;;;;11.10;3.90;;;;;;;12.40;81.27;99996.63;93738;1196;81724;-62
2021/09/25 01:34:27;;;;;;;12.80;4.80;;;;;;;12.42;81.19;99993.83;93749;1196;98074;-62
2021/09/25 01:36:31;;;;;;;13.20;4.90;;;;;;;12.45;81.37;99998.58;93749;1196;86535;-62
2021/09/25 01:38:37;;;;;;;11.00;4.10;;;;;;;12.47;81.35;99997.36;93681;1196;93666;-64
2021/09/25 01:40:41;;;;;;;9.70;4.10;;;;;;;12.49;81.51;99998.61;93709;1196;78419;-63
2021/09/25 01:42:46;;;;;;;9.60;4.60;;;;;;;12.50;81.53;99994.11;93752;1196;81151;-62
2021/09/25 01:44:52;;;;;;;13.60;4.70;;;;;;;12.51;81.56;99995.52;93723;1196;99320;-62
2021/09/25 01:46:58;;;;;;;12.00;4.60;;;;;;;12.54;81.64;99992.60;93702;1196;87008;-62
2021/09/25 01:49:03;;;;;;;9.60;3.90;;;;;;;12.57;81.73;99992.02;93745;1196;93361;-62
2021/09/25 01:51:11;;;;;;;13.80;5.60;;;;;;;12.63;81.78;99996.42;93747;1196;79679;-64
2021/09/25 01:53:18;;;;;;;11.10;4.10;;;;;;;12.68;81.85;99996.98;93752;1196;82688;-62
2021/09/25 01:55:22;;;;;;;11.40;4.20;;;;;;;12.68;81.80;99998.70;93733;1196;99150;-63
2021/09/25 01:57:26;;;;;;;11.70;4.20;;;;;;;12.70;81.89;99998.98;93673;1196;86790;-63
2021/09/25 01:59:30;;;;;;;10.30;4.50;;;;;;;12.73;81.92;99998.39;93703;1196;94700;-63
2021/09/25 02:01:35;;;;;;;15.70;4.30;;;;;;;12.75;81.96;100002.42;93729;1196;80526;-62
2021/09/25 02:03:42;;;;;;;11.60;4.60;;;;;;;12.79;82.03;100000.99;93732;1196;80938;-62
2021/09/25 02:05:46;;;;;;;11.20;4.20;;;;;;;12.84;82.10;100005.83;93699;1196;98574;-62
2021/09/25 02:07:50;;;;;;;8.90;4.50;;;;;;;12.88;82.06;100005.30;93709;1193;86369;-66
2021/09/25 02:09:58;;;;;;;10.20;4.60;;;;;;;12.92;82.14;100008.55;93680;1184;94224;-62
2021/09/25 02:12:08;;;;;;;7.50;3.80;;;;;;;12.95;82.14;100004.91;93690;1196;80443;-63
2021/09/25 02:14:13;;;;;;;9.90;4.20;;;;;;;12.98;82.21;100000.27;93679;1196;82201;-63
2021/09/25 02:16:17;;;;;;;9.20;3.90;;;;;;;13.01;82.22;100001.13;93766;1196;98104;-61
2021/09/25 02:18:22;;;;;;;8.50;4.10;;;;;;;13.04;82.33;99998.32;93731;1196;86785;-63
2021/09/25 02:20:26;;;;;;;10.70;4.70;;;;;;;13.09;82.46;100001.89;93778;1196;93177;-64
2021/09/25 02:22:30;;;;;;;7.80;3.80;;;;;;;13.12;82.31;99995.95;93712;1196;80175;-62
2021/09/25 02:24:35;;;;;;;9.30;4.40;;;;;;;13.13;82.34;100001.55;93715;1196;80762;-62
2021/09/25 02:26:39;;;;;;;6.90;3.60;;;;;;;13.16;82.35;99998.13;93832;1196;97885;-63
2021/09/25 02:28:43;;;;;;;8.10;4.40;;;;;;;13.19;82.46;99998.91;93693;1196;87876;-62
2021/09/25 02:30:50;;;;;;;8.30;4.10;;;;;;;13.22;82.54;99996.90;93743;1196;93155;-63
2021/09/25 02:32:55;;;;;;;9.30;4.00;;;;;;;13.24;82.55;99991.88;93770;1196;81133;-63
2021/09/25 02:34:59;;;;;;;8.70;3.70;;;;;;;13.28;82.58;99987.92;93704;1196;81448;-64
2021/09/25 02:37:05;;;;;;;8.90;4.00;;;;;;;13.31;82.70;99987.67;93705;1196;98152;-63
2021/09/25 02:39:09;;;;;;;7.00;4.50;;;;;;;13.34;82.71;99987.83;93771;1196;86903;-61
2021/09/25 02:41:14;;;;;;;8.50;5.00;;;;;;;13.35;82.76;99985.86;93712;1196;93798;-62
2021/09/25 02:43:22;;;;;;;8.90;4.10;;;;;;;13.37;82.80;99984.26;93741;1196;80392;-64
2021/09/25 02:45:27;;;;;;;13.30;5.00;;;;;;;13.39;82.78;99979.11;93765;1196;81945;-62
2021/09/25 02:47:34;;;;;;;6.60;4.00;;;;;;;13.40;82.91;99979.81;93775;1196;97747;-63
2021/09/25 02:49:38;;;;;;;8.80;3.90;;;;;;;13.43;82.94;99983.27;93757;1196;85931;-62
2021/09/25 02:51:46;;;;;;;11.70;4.80;;;;;;;13.46;82.92;99978.22;93741;1196;94465;-61
2021/09/25 02:53:50;;;;;;;10.00;4.50;;;;;;;13.49;82.90;99978.66;93790;1196;79614;-63
2021/09/25 02:55:54;;;;;;;7.70;4.40;;;;;;;13.51;82.92;99975.57;93739;1196;81070;-63
2021/09/25 02:57:58;;;;;;;6.90;4.10;;;;;;;13.54;82.88;99976.30;93727;1196;99913;-63
2021/09/25 03:00:06;;;;;;;8.60;5.00;;;;;;;13.58;82.88;99976.85;93729;1196;87502;-63
2021/09/25 03:02:10;;;;;;;10.80;4.80;;;;;;;13.61;82.87;99978.67;93763;1196;94115;-62
2021/09/25 03:04:14;;;;;;;8.90;5.00;;;;;;;13.64;82.95;99980.19;93721;1196;80683;-63
2021/09/25 03:06:18;;;;;;;8.20;4.60;;;;;;;13.65;82.91;99972.14;93766;1196;80196;-63
2021/09/25 03:08:25;;;;;;;6.30;3.90;;;;;;;13.66;82.95;99965.48;93760;1196;98259;-63
2021/09/25 03:10:30;;;;;;;7.50;4.40;;;;;;;13.68;82.92;99964.52;93749;1196;86890;-64
2021/09/25 03:12:34;;;;;;;8.90;4.30;;;;;;;13.70;82.93;99966.54;93759;1196;93498;-63
2021/09/25 03:14:39;;;;;;;8.40;4.80;;;;;;;13.71;82.94;99969.24;93802;1196;80449;-62
2021/09/25 03:16:43;;;;;;;6.50;4.00;;;;;;;13.70;82.87;99972.59;93738;1196;80518;-63
2021/09/25 03:18:47;;;;;;;6.60;4.10;;;;;;;13.70;82.90;99972.09;93783;1196;98310;-62
2021/09/25 03:20:51;;;;;;;8.10;4.70;;;;;;;13.72;82.83;99971.71;93754;1196;86880;-64
2021/09/25 03:22:58;;;;;;;7.60;4.40;;;;;;;13.74;82.91;99966.05;93765;1196;93884;-63
2021/09/25 03:25:08;;;;;;;7.70;4.50;;;;;;;13.77;83.00;99966.90;93716;1196;79885;-62
2021/09/25 03:27:12;;;;;;;8.30;4.70;;;;;;;13.81;82.90;99969.10;93780;1196;80351;-62
2021/09/25 03:29:16;;;;;;;6.80;4.00;;;;;;;13.81;82.92;99973.35;93803;1196;97926;-63
2021/09/25 03:31:23;;;;;;;5.70;4.50;;;;;;;13.81;82.92;99982.04;93749;1196;87867;-63
2021/09/25 03:33:28;;;;;;;7.20;4.90;;;;;;;13.85;82.95;99983.48;93705;1196;95100;-63
2021/09/25 03:35:35;;;;;;;6.90;4.60;;;;;;;13.86;82.90;99986.02;93666;1196;79700;-61
2021/09/25 03:37:39;;;;;;;7.20;4.30;;;;;;;13.88;82.91;99987.61;93726;1196;80812;-63
2021/09/25 03:39:43;;;;;;;6.10;4.60;;;;;;;13.87;82.91;99991.03;93729;1196;98591;-62
2021/09/25 03:41:48;;;;;;;8.20;4.60;;;;;;;13.87;82.77;99995.32;93753;1196;88023;-63
2021/09/25 03:43:52;;;;;;;9.70;5.40;;;;;;;13.90;82.87;99997.05;93724;1196;93383;-61
2021/09/25 03:45:56;;;;;;;9.10;5.30;;;;;;;13.91;82.84;99995.08;93727;1196;78015;-63
2021/09/25 03:48:00;;;;;;;10.80;5.20;;;;;;;13.93;82.91;99995.73;93747;1196;82246;-62
2021/09/25 03:50:10;;;;;;;7.80;5.70;;;;;;;13.92;82.89;99994.41;93708;1196;97186;-62
2021/09/25 03:52:14;;;;;;;7.50;5.10;;;;;;;13.95;82.88;99995.09;93739;1196;87511;-63
2021/09/25 03:54:18;;;;;;;7.50;5.20;;;;;;;13.97;82.88;99997.33;93751;1196;93728;-63
2021/09/25 03:56:26;;;;;;;7.70;5.30;;;;;;;13.98;82.92;100000.09;93667;1196;79925;-62
2021/09/25 03:58:30;;;;;;;10.20;6.00;;;;;;;13.99;82.91;100003.21;93740;1196;81520;-63
2021/09/25 04:00:42;;;;;;;7.50;5.30;;;;;;;14.01;82.88;100002.69;93772;1196;99461;-61
2021/09/25 04:02:46;;;;;;;9.30;5.50;;;;;;;14.02;82.92;100000.71;93746;1196;87452;-62
2021/09/25 04:04:51;;;;;;;7.40;5.60;;;;;;;14.03;82.86;100000.46;93701;1196;93708;-64
2021/09/25 04:06:55;;;;;;;8.10;5.70;;;;;;;14.04;82.85;99994.77;93699;1196;80788;-63
2021/09/25 04:08:59;;;;;;;12.40;6.10;;;;;;;14.07;82.84;99991.19;93755;1196;82029;-63
2021/09/25 04:11:04;;;;;;;9.70;5.40;;;;;;;14.08;82.90;99993.40;93729;1196;98445;-62
2021/09/25 04:13:11;;;;;;;7.60;5.90;;;;;;;14.10;82.92;99997.81;93743;1196;87431;-62
2021/09/25 04:15:19;;;;;;;11.40;5.40;;;;;;;14.10;82.88;99997.38;93686;1196;93123;-63
2021/09/25 04:17:23;;;;;;;10.80;6.00;;;;;;;14.10;82.82;100001.86;93723;1196;79931;-62
2021/09/25 04:19:28;;;;;;;9.70;6.10;;;;;;;14.11;82.85;100003.52;93764;1196;82256;-63
2021/09/25 04:21:32;;;;;;;8.20;5.60;;;;;;;14.15;82.82;100003.58;93745;1196;98174;-62
2021/09/25 04:23:37;;;;;;;7.90;6.00;;;;;;;14.16;82.91;100004.98;93718;1196;87051;-61
2021/09/25 04:25:41;;;;;;;11.80;6.60;;;;;;;14.15;82.98;100008.91;93712;1196;92306;-61
2021/09/25 04:27:49;;;;;;;11.60;6.40;;;;;;;14.15;82.84;100004.73;93718;1196;80879;-62
2021/09/25 04:29:56;;;;;;;7.80;6.00;;;;;;;14.15;82.87;100006.58;93749;1196;82378;-61
2021/09/25 04:32:01;;;;;;;8.80;6.10;;;;;;;14.15;82.82;100006.75;93740;1196;98407;-63
2021/09/25 04:34:05;;;;;;;8.00;5.70;;;;;;;14.16;82.85;100005.59;93688;1196;88399;-63
2021/09/25 04:36:10;;;;;;;7.40;5.40;;;;;;;14.18;82.88;100005.27;93731;1196;93175;-61
2021/09/25 04:38:20;;;;;;;9.30;6.50;;;;;;;14.23;82.93;100009.91;93823;1196;79076;-62
2021/09/25 04:40:25;;;;;;;10.30;6.50;;;;;;;14.26;82.87;100010.80;93804;1196;81677;-61
2021/09/25 04:42:29;;;;;;;10.60;6.40;;;;;;;14.27;82.89;100008.61;93809;1196;97229;-62
2021/09/25 04:44:33;;;;;;;9.60;6.60;;;;;;;14.26;82.86;100012.92;93725;1196;88057;-64
2021/09/25 04:46:37;;;;;;;11.50;6.80;;;;;;;14.29;82.79;100015.94;93744;1196;94358;-62
2021/09/25 04:48:42;;;;;;;11.10;6.90;;;;;;;14.30;82.86;100021.04;93695;1196;81196;-62
2021/09/25 04:50:46;;;;;;;14.20;8.20;;;;;;;14.31;82.91;100023.30;93745;1196;80629;-62
2021/09/25 04:52:50;;;;;;;9.00;6.90;;;;;;;14.34;82.92;100023.46;93763;1196;99183;-63
2021/09/25 04:54:55;;;;;;;11.30;7.20;;;;;;;14.35;82.97;100024.00;93682;1196;87499;-63
2021/09/25 04:56:59;;;;;;;10.40;6.60;;;;;;;14.38;82.89;100026.48;93747;1196;93944;-62
2021/09/25 04:59:03;;;;;;;8.20;6.40;;;;;;;14.39;82.80;100032.01;93715;1196;81648;-63
2021/09/25 05:01:07;;;;;;;10.50;7.30;;;;;;;14.41;82.81;100033.00;93757;1189;82202;-62
2021/09/25 05:03:11;;;;;;;9.70;6.70;;;;;;;14.46;82.81;100036.19;93764;1196;99148;-62
2021/09/25 05:05:16;;;;;;;10.70;6.60;;;;;;;14.49;82.88;100033.23;93690;1196;87222;-62
2021/09/25 05:07:23;;;;;;;10.00;6.90;;;;;;;14.53;82.88;100035.16;93781;1196;97086;-63
2021/09/25 05:09:27;;;;;;;10.90;8.00;;;;;;;14.56;82.85;100032.88;93703;1196;78322;-64
2021/09/25 05:11:31;;;;;;;99.20;72.60;;;;;;;14.59;82.81;100031.39;93759;1196;81232;-63
2021/09/25 05:13:36;;;;;;;55.70;43.60;;;;;;;14.62;82.76;100037.04;93734;1196;98703;-62
2021/09/25 05:15:40;;;;;;;21.00;15.40;;;;;;;14.66;82.73;100039.30;93701;1196;88226;-63
2021/09/25 05:17:44;;;;;;;12.00;10.00;;;;;;;14.70;82.78;100041.77;93715;1196;94144;-61
2021/09/25 05:19:48;;;;;;;13.00;8.20;;;;;;;14.75;82.64;100041.55;93706;1196;79170;-62
2021/09/25 05:21:52;;;;;;;13.60;8.40;;;;;;;14.80;82.70;100039.36;93748;1196;82267;-63
2021/09/25 05:23:56;;;;;;;10.30;8.00;;;;;;;14.83;82.66;100040.34;93737;1196;99060;-64
2021/09/25 05:26:01;;;;;;;10.60;7.50;;;;;;;14.85;82.53;100041.61;93759;1196;87496;-62
2021/09/25 05:28:06;;;;;;;12.00;7.90;;;;;;;14.85;82.59;100041.48;93691;1196;94000;-61
2021/09/25 05:30:13;;;;;;;9.60;7.70;;;;;;;14.88;82.56;100040.16;93719;1196;81560;-62
2021/09/25 05:32:17;;;;;;;10.90;7.70;;;;;;;14.91;82.58;100040.88;93649;1198;80546;-61
2021/09/25 05:34:21;;;;;;;12.10;7.80;;;;;;;14.95;82.55;100045.89;93641;1196;98959;-62
2021/09/25 05:36:29;;;;;;;13.60;8.70;;;;;;;15.01;82.55;100040.89;93710;1196;87310;-62
2021/09/25 05:38:33;;;;;;;12.40;8.20;;;;;;;15.04;82.58;100040.89;93668;1196;93587;-63
2021/09/25 05:40:37;;;;;;;12.60;8.60;;;;;;;15.09;82.44;100037.37;93688;1196;81417;-63
2021/09/25 05:42:41;;;;;;;12.80;8.90;;;;;;;15.09;82.42;100039.99;93714;1196;81433;-61
2021/09/25 05:44:46;;;;;;;10.80;8.10;;;;;;;15.10;82.42;100041.16;93671;1196;98858;-65
2021/09/25 05:46:51;;;;;;;12.60;8.20;;;;;;;15.11;82.38;100040.64;93690;1196;88982;-62
2021/09/25 05:48:55;;;;;;;12.80;8.50;;;;;;;15.13;82.26;100042.02;93699;1196;93331;-64
2021/09/25 05:50:59;;;;;;;12.60;8.60;;;;;;;15.16;82.30;100041.21;93679;1196;78418;-64
2021/09/25 05:53:04;;;;;;;13.50;8.90;;;;;;;15.14;82.30;100042.11;93716;1196;80388;-64
2021/09/25 05:55:10;;;;;;;13.90;9.20;;;;;;;15.13;82.24;100049.59;93660;1196;98753;-61
2021/09/25 05:57:14;;;;;;;14.30;8.90;;;;;;;15.13;82.17;100052.42;93685;1196;86384;-61
2021/09/25 05:59:18;;;;;;;12.60;8.70;;;;;;;15.13;82.20;100053.02;93687;1196;93676;-65
2021/09/25 06:01:22;;;;;;;13.50;9.50;;;;;;;15.13;82.33;100047.99;93766;1196;78495;-63
2021/09/25 06:03:27;;;;;;;11.80;8.80;;;;;;;15.15;82.29;100051.61;93741;1196;81098;-61
2021/09/25 06:05:32;;;;;;;11.30;9.00;;;;;;;15.16;82.30;100051.59;93698;1196;98454;-62
2021/09/25 06:07:37;;;;;;;12.50;9.10;;;;;;;15.19;82.28;100053.90;93705;1196;87456;-61
2021/09/25 06:09:41;;;;;;;12.20;9.30;;;;;;;15.21;82.23;100054.84;93682;1196;94691;-62
2021/09/25 06:11:46;;;;;;;13.70;9.10;;;;;;;15.23;82.27;100061.38;93719;1196;81160;-61
2021/09/25 06:13:53;;;;;;;14.00;9.10;;;;;;;15.25;82.26;100065.46;93642;1196;81946;-64
2021/09/25 06:15:57;;;;;;;13.10;9.50;;;;;;;15.31;82.32;100064.27;93659;1196;99034;-65
2021/09/25 06:18:05;;;;;;;10.10;8.70;;;;;;;15.35;82.32;100064.21;93752;1196;87286;-66
2021/09/25 06:20:12;;;;;;;15.30;10.20;;;;;;;15.40;82.21;100059.46;93831;1196;93305;-64
2021/09/25 06:22:17;;;;;;;15.80;9.80;;;;;;;15.42;82.24;100055.11;93742;1196;81720;-64
2021/09/25 06:24:24;;;;;;;13.40;9.00;;;;;;;15.47;82.23;100061.86;93701;1196;80444;-65
2021/09/25 06:26:29;;;;;;;11.50;9.80;;;;;;;15.52;82.17;100064.84;93691;1196;96149;-64
2021/09/25 06:28:37;;;;;;;12.60;9.20;;;;;;;15.57;82.22;100065.09;93699;1198;87620;-64
2021/09/25 06:30:41;;;;;;;13.20;10.10;;;;;;;15.63;82.17;100062.12;93717;1196;94397;-64
2021/09/25 06:32:46;;;;;;;15.80;10.00;;;;;;;15.70;82.23;100064.21;93731;1196;79573;-62
2021/09/25 06:34:51;;;;;;;15.50;9.80;;;;;;;15.77;82.21;100062.44;93742;1196;80878;-61
2021/09/25 06:36:55;;;;;;;15.30;9.70;;;;;;;15.82;82.10;100058.38;93738;1196;99153;-62
2021/09/25 06:39:00;;;;;;;13.80;9.90;;;;;;;15.87;81.99;100060.86;93680;1198;87123;-65
2021/09/25 06:41:04;;;;;;;12.50;9.70;;;;;;;15.95;81.95;100063.30;93718;1196;93041;-64
2021/09/25 06:43:08;;;;;;;14.20;9.70;;;;;;;15.98;81.75;100065.23;93692;1196;78523;-64
2021/09/25 06:45:13;;;;;;;13.40;10.10;;;;;;;15.98;81.73;100063.77;93746;1196;80777;-61
2021/09/25 06:47:17;;;;;;;14.20;10.40;;;;;;;15.98;81.69;100068.16;93793;1196;98632;-64
2021/09/25 06:49:23;;;;;;;14.60;10.30;;;;;;;15.96;81.69;100071.16;93752;1196;88263;-64
2021/09/25 06:51:28;;;;;;;14.40;9.70;;;;;;;15.96;81.64;100066.70;93727;1196;93248;-64
2021/09/25 06:53:33;;;;;;;15.60;10.60;;;;;;;15.94;81.67;100068.56;93750;1196;81452;-61
2021/09/25 06:55:37;;;;;;;13.60;10.10;;;;;;;15.94;81.60;100068.71;93824;1196;81176;-60
2021/09/25 06:57:41;;;;;;;16.40;11.00;;;;;;;15.98;81.58;100065.98;93790;1196;98959;-59
2021/09/25 06:59:45;;;;;;;14.10;10.50;;;;;;;16.02;81.59;100072.08;93756;1196;87010;-64
2021/09/25 07:01:49;;;;;;;14.90;10.90;;;;;;;16.06;81.54;100072.95;93794;1196;94072;-61
2021/09/25 07:03:53;;;;;;;15.30;11.20;;;;;;;16.09;81.52;100071.64;93775;1196;80948;-61
2021/09/25 07:05:58;;;;;;;15.70;10.90;;;;;;;16.11;81.44;100075.81;93781;1196;81952;-61
2021/09/25 07:08:02;;;;;;;13.80;10.80;;;;;;;16.12;81.44;100073.98;93780;1196;98993;-63
2021/09/25 07:10:11;;;;;;;14.20;11.00;;;;;;;16.15;81.45;100080.23;93812;1196;87688;-66
2021/09/25 07:12:18;;;;;;;14.40;10.80;;;;;;;16.18;81.54;100079.43;93748;1196;92927;-65
2021/09/25 07:14:22;;;;;;;14.90;10.90;;;;;;;16.20;81.56;100081.27;93817;1196;78895;-65
2021/09/25 07:16:27;;;;;;;16.30;11.20;;;;;;;16.19;81.51;100085.52;93800;1196;80381;-63
2021/09/25 07:18:34;;;;;;;15.30;11.20;;;;;;;16.19;81.45;100085.69;93805;1196;99023;-65
2021/09/25 07:20:39;;;;;;;16.20;11.00;;;;;;;16.23;81.34;100086.81;93748;1196;88296;-64
2021/09/25 07:22:45;;;;;;;17.20;11.90;;;;;;;16.28;81.35;100085.67;93767;1196;93024;-64
2021/09/25 07:24:54;;;;;;;13.80;10.00;;;;;;;16.31;81.36;100085.13;93769;1196;78303;-61
2021/09/25 07:26:58;;;;;;;13.90;11.20;;;;;;;16.34;81.38;100085.30;93838;1196;80434;-61
2021/09/25 07:29:02;;;;;;;16.70;11.80;;;;;;;16.34;81.39;100088.78;93762;1196;97319;-64
2021/09/25 07:31:09;;;;;;;18.00;12.10;;;;;;;16.36;81.49;100084.54;93791;1196;88097;-64
2021/09/25 07:33:17;;;;;;;16.30;11.10;;;;;;;16.41;81.46;100091.09;93692;1198;93892;-65
2021/09/25 07:35:23;;;;;;;16.60;11.10;;;;;;;16.41;81.42;100092.64;93780;1196;80077;-65
2021/09/25 07:37:27;;;;;;;14.60;10.60;;;;;;;16.42;81.44;100094.01;93794;1196;81322;-65
2021/09/25 07:39:32;;;;;;;15.50;12.10;;;;;;;16.45;81.45;100097.09;93760;1196;100195;-61
2021/09/25 07:41:40;;;;;;;15.20;11.50;;;;;;;16.49;81.52;100094.09;93743;1196;87086;-59
2021/09/25 07:43:44;;;;;;;15.40;11.80;;;;;;;16.53;81.62;100093.60;93703;1196;94346;-61
2021/09/25 07:45:48;;;;;;;13.00;10.60;;;;;;;16.60;81.65;100092.73;93769;1196;80076;-62
2021/09/25 07:47:57;;;;;;;16.00;11.20;;;;;;;16.68;81.67;100093.05;93746;1196;81922;-61
2021/09/25 07:50:01;;;;;;;16.20;11.60;;;;;;;16.81;81.68;100094.29;93703;1196;98723;-65
2021/09/25 07:52:06;;;;;;;17.50;12.60;;;;;;;16.94;81.61;100101.40;93863;1196;88232;-65
2021/09/25 07:54:11;;;;;;;14.30;11.20;;;;;;;17.01;81.57;100098.91;93713;1196;93906;-63
2021/09/25 07:56:15;;;;;;;15.70;11.70;;;;;;;16.97;81.44;100100.39;93774;1196;78165;-64
2021/09/25 07:58:22;;;;;;;14.40;11.40;;;;;;;16.99;81.44;100105.89;93702;1196;83819;-64
2021/09/25 08:00:26;;;;;;;15.40;11.80;;;;;;;17.03;81.37;100106.95;93767;1196;97428;-66
2021/09/25 08:02:30;;;;;;;12.10;10.50;;;;;;;17.09;81.37;100111.36;93739;1196;86044;-65
2021/09/25 08:04:34;;;;;;;13.20;11.60;;;;;;;17.18;81.31;100113.13;93736;1196;93249;-61
2021/09/25 08:06:38;;;;;;;14.80;11.40;;;;;;;17.26;81.31;100109.88;93740;1196;78182;-60
2021/09/25 08:08:43;;;;;;;15.90;12.00;;;;;;;17.25;81.21;100115.23;93761;1196;81023;-60
2021/09/25 08:10:47;;;;;;;15.20;11.30;;;;;;;17.21;81.11;100117.73;93761;1183;98837;-60
2021/09/25 08:12:52;;;;;;;15.70;11.50;;;;;;;17.18;81.03;100122.05;93820;1196;87603;-61
2021/09/25 08:14:57;;;;;;;16.20;12.60;;;;;;;17.18;80.97;100119.42;93749;1196;94786;-65
2021/09/25 08:17:01;;;;;;;15.30;11.00;;;;;;;17.10;81.09;100120.21;93749;1196;80073;-68
2021/09/25 08:19:06;;;;;;;14.60;11.10;;;;;;;17.09;81.02;100120.38;93802;1196;81543;-66
2021/09/25 08:21:10;;;;;;;12.70;10.70;;;;;;;17.12;80.96;100120.34;93737;1196;99033;-61
2021/09/25 08:23:14;;;;;;;18.50;12.80;;;;;;;17.16;80.93;100122.17;93763;1196;87450;-61
2021/09/25 08:25:19;;;;;;;15.70;11.70;;;;;;;17.15;80.91;100127.55;93723;1196;94106;-64
2021/09/25 08:27:23;;;;;;;12.10;10.80;;;;;;;17.05;80.97;100126.73;93795;1196;80208;-64
2021/09/25 08:29:27;;;;;;;16.30;12.00;;;;;;;17.04;80.92;100127.36;93709;1196;81735;-64
2021/09/25 08:31:32;;;;;;;14.10;11.20;;;;;;;17.06;80.83;100129.86;93783;1196;97454;-66
2021/09/25 08:33:36;;;;;;;15.30;12.30;;;;;;;17.08;80.76;100135.63;93724;1196;86784;-65
2021/09/25 08:35:41;;;;;;;15.20;12.20;;;;;;;17.05;80.86;100133.92;93771;1196;95020;-67
2021/09/25 08:37:45;;;;;;;14.50;11.60;;;;;;;17.03;80.81;100137.70;93704;1196;80017;-66
2021/09/25 08:39:49;;;;;;;15.30;12.50;;;;;;;17.01;80.81;100137.33;93794;1196;81797;-65
2021/09/25 08:41:54;;;;;;;14.40;12.60;;;;;;;16.97;80.81;100143.58;93777;1196;98164;-65
2021/09/25 08:43:59;;;;;;;14.80;11.90;;;;;;;16.93;80.90;100144.57;93725;1196;87514;-62
2021/09/25 08:46:08;;;;;;;14.00;12.00;;;;;;;16.92;80.94;100140.89;93771;1196;92770;-62
2021/09/25 08:48:13;;;;;;;17.10;12.20;;;;;;;16.86;81.03;100147.33;93641;1197;79705;-62
2021/09/25 08:50:19;;;;;;;15.80;12.30;;;;;;;16.83;81.07;100151.63;93783;1196;81552;-66
2021/09/25 08:52:23;;;;;;;17.70;13.20;;;;;;;16.84;81.17;100147.38;93809;1196;97150;-64
2021/09/25 08:54:28;;;;;;;17.80;13.10;;;;;;;16.88;81.19;100141.73;93733;1196;87998;-66
2021/09/25 08:56:33;;;;;;;17.20;12.70;;;;;;;16.96;81.24;100135.70;93688;1196;94375;-66
2021/09/25 08:58:37;;;;;;;15.30;12.90;;;;;;;17.05;81.38;100131.84;93782;1196;81300;-67
2021/09/25 09:00:44;;;;;;;18.30;13.20;;;;;;;17.21;81.44;100130.74;93747;1197;82108;-67
2021/09/25 09:02:48;;;;;;;17.00;13.80;;;;;;;17.39;81.44;100132.92;93779;1196;97937;-66
2021/09/25 09:04:55;;;;;;;18.50;14.50;;;;;;;17.48;81.42;100138.27;93778;1196;86185;-61
2021/09/25 09:07:12;;;;;;;17.40;13.60;;;;;;;17.57;81.32;100146.20;93664;1196;93593;-61
2021/09/25 09:09:16;;;;;;;17.10;12.40;;;;;;;17.53;81.09;100147.73;93765;1196;80789;-60
2021/09/25 09:11:23;;;;;;;17.00;13.40;;;;;;;17.54;80.99;100142.94;93704;1197;81980;-60
2021/09/25 09:13:28;;;;;;;17.50;13.90;;;;;;;17.55;81.02;100139.98;93876;1196;97147;-60
2021/09/25 09:15:33;;;;;;;15.90;13.80;;;;;;;17.68;81.09;100138.08;93765;1196;87723;-61
2021/09/25 09:17:38;;;;;;;16.80;13.80;;;;;;;17.84;81.17;100140.35;93708;1196;93229;-61
2021/09/25 09:19:42;;;;;;;16.60;13.80;;;;;;;18.01;81.23;100139.72;93702;1196;79920;-60
2021/09/25 09:21:50;;;;;;;16.40;13.30;;;;;;;18.20;81.17;100142.95;93757;1196;81719;-61
2021/09/25 09:23:57;;;;;;;17.00;13.30;;;;;;;18.38;81.04;100133.30;93759;1196;98852;-61
2021/09/25 09:26:02;;;;;;;18.20;12.90;;;;;;;18.55;80.84;100132.43;93731;1196;88933;-61
2021/09/25 09:28:11;;;;;;;15.60;13.30;;;;;;;18.63;80.72;100133.38;93714;1196;93908;-61
2021/09/25 09:30:18;;;;;;;15.80;13.00;;;;;;;18.74;80.56;100143.80;93732;1196;80831;-61
2021/09/25 09:32:24;;;;;;;15.20;12.70;;;;;;;18.79;80.30;100147.16;93751;1196;79895;-61
2021/09/25 09:34:37;;;;;;;17.50;12.80;;;;;;;18.80;80.03;100148.60;93714;1196;98877;-67
2021/09/25 09:36:42;;;;;;;17.00;12.40;;;;;;;18.77;79.81;100148.61;93724;1196;87276;-67